Time;durP1;ratioP1;P1;durP2;ratioP2;P2;SDS_P1;SDS_P2;PMS_P1;PMS_P2;Temp;Humidity;BMP_temperature;BMP_pressure;BME280_temperature;BME280_humidity;BME280_pressure;Samples;Min_cycle;Max_cycle;Signal;HPM_P1;HPM_P2
2024/01/25 00:01:26;;;;;;;25.77;5.70;;;6.70;99.90;;;;;;6312977;22;20041;-35
2024/01/25 00:03:52;;;;;;;24.40;4.82;;;6.60;99.90;;;;;;6311980;22;20325;-37
2024/01/25 00:06:17;;;;;;;36.25;5.90;;;6.50;99.90;;;;;;6339832;22;20068;-33
2024/01/25 00:08:43;;;;;;;26.67;4.40;;;6.40;99.90;;;;;;6340161;22;20499;-35
2024/01/25 00:11:09;;;;;;;23.75;5.82;;;6.20;99.90;;;;;;6339135;22;20018;-35
2024/01/25 00:13:37;;;;;;;35.58;5.22;;;6.20;99.90;;;;;;6339534;22;20089;-33
2024/01/25 00:16:03;;;;;;;34.22;4.60;;;6.00;99.90;;;;;;6340130;22;20018;-35
2024/01/25 00:18:29;;;;;;;25.50;5.45;;;6.10;99.90;;;;;;6340115;22;20018;-35
2024/01/25 00:20:55;;;;;;;31.15;5.68;;;6.00;99.90;;;;;;6312036;22;20019;-35
2024/01/25 00:23:21;;;;;;;36.08;7.57;;;5.90;99.90;;;;;;6312804;22;20292;-34
2024/01/25 00:25:47;;;;;;;32.42;7.07;;;5.90;99.90;;;;;;6339378;22;20068;-34
2024/01/25 00:28:13;;;;;;;26.20;4.47;;;5.80;99.90;;;;;;6340439;22;20086;-34
2024/01/25 00:30:39;;;;;;;44.40;6.20;;;5.70;99.90;;;;;;6338920;22;20431;-36
2024/01/25 00:33:05;;;;;;;31.40;4.38;;;5.60;99.90;;;;;;6339324;22;20072;-36
2024/01/25 00:35:31;;;;;;;29.92;4.78;;;5.50;99.90;;;;;;6311307;22;20018;-36
2024/01/25 00:37:57;;;;;;;46.03;6.60;;;5.60;99.90;;;;;;6338930;22;20328;-37
2024/01/25 00:40:23;;;;;;;23.13;4.15;;;5.60;99.90;;;;;;6311807;22;20018;-34
2024/01/25 00:42:52;;;;;;;38.65;5.35;;;5.60;99.90;;;;;;6311702;22;20018;-39
2024/01/25 00:45:19;;;;;;;19.27;4.82;;;5.50;99.90;;;;;;6338897;22;20450;-38
2024/01/25 00:47:46;;;;;;;29.58;5.85;;;5.50;99.90;;;;;;6339659;22;20014;-38
2024/01/25 00:50:12;;;;;;;39.75;6.70;;;5.50;99.90;;;;;;6311662;22;20026;-37
2024/01/25 00:52:38;;;;;;;38.92;5.78;;;5.30;99.90;;;;;;6311987;22;20437;-35
2024/01/25 00:55:05;;;;;;;33.53;6.18;;;5.30;99.90;;;;;;6339248;22;20014;-37
2024/01/25 00:57:31;;;;;;;39.35;6.28;;;5.30;99.90;;;;;;6339635;22;20334;-36
2024/01/25 00:59:58;;;;;;;35.28;6.43;;;5.40;99.90;;;;;;6339242;22;20085;-37
2024/01/25 01:02:26;;;;;;;22.27;4.57;;;5.40;99.90;;;;;;6339219;22;20017;-35
2024/01/25 01:04:51;;;;;;;30.55;6.72;;;5.60;99.90;;;;;;6339267;22;20026;-37
2024/01/25 01:07:18;;;;;;;30.85;5.68;;;5.60;99.90;;;;;;6339224;22;20019;-39
2024/01/25 01:09:43;;;;;;;28.15;4.30;;;5.60;99.90;;;;;;6311598;22;20018;-37
2024/01/25 01:12:09;;;;;;;34.17;6.75;;;5.60;99.90;;;;;;6339906;22;20445;-36
2024/01/25 01:14:35;;;;;;;25.65;6.20;;;5.60;99.90;;;;;;6339125;22;20019;-35
2024/01/25 01:17:00;;;;;;;33.67;6.55;;;5.60;99.90;;;;;;6339528;22;20021;-37
2024/01/25 01:19:26;;;;;;;22.75;4.35;;;5.50;99.90;;;;;;6314233;22;20359;-35
2024/01/25 01:21:52;;;;;;;26.27;5.35;;;5.60;99.90;;;;;;6313799;22;20089;-34
2024/01/25 01:24:17;;;;;;;22.13;4.18;;;5.60;99.90;;;;;;6340882;22;20015;-37
2024/01/25 01:26:44;;;;;;;33.35;5.78;;;5.50;99.90;;;;;;6341202;22;20536;-36
2024/01/25 01:29:09;;;;;;;43.30;5.18;;;5.60;99.90;;;;;;6340960;22;20342;-36
2024/01/25 01:31:35;;;;;;;28.20;5.22;;;5.60;99.90;;;;;;6341882;22;20050;-34
2024/01/25 01:34:01;;;;;;;34.65;6.18;;;5.50;99.90;;;;;;6340860;22;20365;-37
2024/01/25 01:36:27;;;;;;;20.35;4.07;;;5.50;99.90;;;;;;6340846;22;20015;-35
2024/01/25 01:38:52;;;;;;;33.17;5.35;;;5.40;99.90;;;;;;6340735;22;20015;-36
2024/01/25 01:41:18;;;;;;;23.90;3.80;;;5.40;99.90;;;;;;6341297;22;20015;-35
2024/01/25 01:43:45;;;;;;;31.98;5.28;;;5.40;99.90;;;;;;6313302;22;20434;-39
2024/01/25 01:46:31;;;;;;;17.95;4.90;;;5.40;99.90;;;;;;6341442;22;20014;-36
2024/01/25 01:48:57;;;;;;;23.90;5.40;;;5.40;99.90;;;;;;6342304;22;20015;-36
2024/01/25 01:51:22;;;;;;;41.97;5.57;;;5.50;99.90;;;;;;6340628;22;20033;-36
2024/01/25 01:53:49;;;;;;;23.40;4.47;;;5.50;99.90;;;;;;6340568;22;20076;-37
2024/01/25 01:56:15;;;;;;;36.35;6.28;;;5.40;99.90;;;;;;6340262;22;20458;-35
2024/01/25 01:58:42;;;;;;;35.05;5.13;;;5.40;99.90;;;;;;6314080;22;20019;-38
2024/01/25 02:01:08;;;;;;;31.30;3.90;;;5.40;99.90;;;;;;6341108;22;20071;-34
2024/01/25 02:03:33;;;;;;;27.48;4.20;;;5.40;99.90;;;;;;6313134;22;20054;-34
2024/01/25 02:06:02;;;;;;;28.15;4.63;;;5.30;99.90;;;;;;6312530;22;20072;-38
2024/01/25 02:08:31;;;;;;;27.45;4.15;;;5.30;99.90;;;;;;6313446;22;20048;-38
2024/01/25 02:10:57;;;;;;;30.70;4.90;;;5.30;99.90;;;;;;6312945;22;20044;-38
2024/01/25 02:13:22;;;;;;;32.30;4.88;;;5.30;99.90;;;;;;6340391;22;20015;-35
2024/01/25 02:15:51;;;;;;;31.15;4.25;;;5.30;99.90;;;;;;6313031;22;20019;-34
2024/01/25 02:18:16;;;;;;;21.90;4.38;;;5.30;99.90;;;;;;6313641;22;20080;-38
2024/01/25 02:20:42;;;;;;;26.50;4.50;;;5.20;99.90;;;;;;6340266;22;20094;-35
2024/01/25 02:23:08;;;;;;;37.55;6.03;;;5.10;99.90;;;;;;6340305;22;20018;-37
2024/01/25 02:25:33;;;;;;;16.40;3.45;;;5.10;99.90;;;;;;6313136;22;20065;-36
2024/01/25 02:27:59;;;;;;;35.83;5.55;;;5.10;99.90;;;;;;6312831;22;20034;-35
2024/01/25 02:30:25;;;;;;;41.63;6.32;;;5.20;99.90;;;;;;6340294;22;20019;-37
2024/01/25 02:32:50;;;;;;;29.77;5.63;;;5.00;99.90;;;;;;6340573;22;20010;-37
2024/01/25 02:35:16;;;;;;;32.28;5.75;;;5.00;99.90;;;;;;6340206;22;20033;-37
2024/01/25 02:37:42;;;;;;;32.13;5.47;;;4.90;99.90;;;;;;6340248;22;20046;-35
2024/01/25 02:40:08;;;;;;;31.70;5.72;;;4.80;99.90;;;;;;6312667;22;20025;-38
2024/01/25 02:42:34;;;;;;;35.10;6.13;;;4.70;99.90;;;;;;6340802;22;20050;-34
2024/01/25 02:44:59;;;;;;;42.28;6.47;;;4.70;99.90;;;;;;6340222;22;20060;-36
2024/01/25 02:47:25;;;;;;;41.95;6.90;;;4.50;99.90;;;;;;6339686;22;20018;-35
2024/01/25 02:49:51;;;;;;;46.03;7.13;;;4.50;99.90;;;;;;6340174;22;20072;-35
2024/01/25 02:52:17;;;;;;;36.65;7.70;;;4.40;99.90;;;;;;6312144;22;20438;-37
2024/01/25 02:54:42;;;;;;;42.90;6.75;;;4.50;99.90;;;;;;6340096;22;20021;-36
2024/01/25 02:57:08;;;;;;;43.55;6.80;;;4.50;99.90;;;;;;6340009;22;20019;-36
2024/01/25 02:59:34;;;;;;;41.95;5.57;;;4.40;99.90;;;;;;6313596;22;20023;-36
2024/01/25 03:01:59;;;;;;;43.20;7.78;;;4.50;99.90;;;;;;6312710;22;20072;-38
2024/01/25 03:04:25;;;;;;;38.45;6.80;;;4.30;99.90;;;;;;6340120;22;20061;-37
2024/01/25 03:06:51;;;;;;;37.58;6.22;;;4.40;99.90;;;;;;6286553;22;20071;-38
2024/01/25 03:09:16;;;;;;;42.33;5.53;;;4.40;99.90;;;;;;6340067;22;20450;-38
2024/01/25 03:11:42;;;;;;;29.02;4.70;;;4.40;99.90;;;;;;6340378;22;20007;-38
2024/01/25 03:14:08;;;;;;;38.20;6.85;;;4.40;99.90;;;;;;6339922;22;20015;-39
2024/01/25 03:16:33;;;;;;;42.60;6.32;;;4.30;99.90;;;;;;6340620;22;20014;-36
2024/01/25 03:18:59;;;;;;;43.33;7.72;;;4.40;99.90;;;;;;6312368;22;20037;-36
2024/01/25 03:21:25;;;;;;;42.47;5.80;;;4.20;99.90;;;;;;6312411;22;20018;-40
2024/01/25 03:23:51;;;;;;;38.08;6.22;;;4.20;99.90;;;;;;6313172;22;20026;-38
2024/01/25 03:26:17;;;;;;;48.72;6.20;;;4.10;99.90;;;;;;6312225;22;20451;-38
2024/01/25 03:28:43;;;;;;;55.80;7.72;;;4.20;99.90;;;;;;6339736;22;20019;-39
2024/01/25 03:31:09;;;;;;;47.45;7.13;;;4.10;99.90;;;;;;6312164;22;20067;-37
2024/01/25 03:33:35;;;;;;;39.63;7.43;;;4.00;99.90;;;;;;6340099;22;20021;-36
2024/01/25 03:36:05;;;;;;;50.83;7.65;;;4.00;99.90;;;;;;6312406;22;20068;-38
2024/01/25 03:38:31;;;;;;;36.95;5.72;;;4.00;99.90;;;;;;6339759;22;20144;-36
2024/01/25 03:40:58;;;;;;;47.15;6.70;;;4.10;99.90;;;;;;6312035;22;20023;-39
2024/01/25 03:43:25;;;;;;;48.15;8.00;;;3.90;99.90;;;;;;6339724;22;20023;-39
2024/01/25 03:45:51;;;;;;;53.90;7.57;;;3.90;99.90;;;;;;6286780;22;20021;-40
2024/01/25 03:48:16;;;;;;;52.97;6.72;;;3.80;99.90;;;;;;6339148;22;20023;-38
2024/01/25 03:50:42;;;;;;;39.88;6.38;;;3.80;99.90;;;;;;6339651;22;20011;-39
2024/01/25 03:53:08;;;;;;;45.88;5.70;;;3.80;99.90;;;;;;6312075;22;20015;-39
2024/01/25 03:55:34;;;;;;;44.65;6.63;;;3.70;99.90;;;;;;6260642;22;20163;-39
2024/01/25 03:57:59;;;;;;;38.33;6.93;;;3.80;99.90;;;;;;6312857;22;20022;-36
2024/01/25 04:00:25;;;;;;;30.83;4.82;;;3.70;99.90;;;;;;6312037;22;20053;-38
2024/01/25 04:02:51;;;;;;;40.28;6.13;;;3.70;99.90;;;;;;6339596;22;20056;-39
2024/01/25 04:05:17;;;;;;;46.45;6.95;;;3.60;99.90;;;;;;6312132;22;20018;-38
2024/01/25 04:07:43;;;;;;;37.42;6.07;;;3.60;99.90;;;;;;6339498;22;20442;-39
2024/01/25 04:10:08;;;;;;;44.33;6.10;;;3.70;99.90;;;;;;6339855;22;20011;-39
2024/01/25 04:12:34;;;;;;;45.40;7.68;;;3.50;99.90;;;;;;6339491;22;20018;-40
2024/01/25 04:15:00;;;;;;;34.80;6.15;;;3.60;99.90;;;;;;6339404;22;20015;-39
2024/01/25 04:17:26;;;;;;;47.90;6.85;;;3.60;99.90;;;;;;6339416;22;20066;-39
2024/01/25 04:19:52;;;;;;;48.30;8.13;;;3.50;99.90;;;;;;6339469;22;20026;-39
2024/01/25 04:22:17;;;;;;;34.55;5.95;;;3.60;99.90;;;;;;6311585;22;20347;-39
2024/01/25 04:24:43;;;;;;;45.25;6.75;;;3.50;99.90;;;;;;6311467;22;20019;-37
2024/01/25 04:27:10;;;;;;;42.20;6.22;;;3.40;99.90;;;;;;6339405;22;20026;-38
2024/01/25 04:29:39;;;;;;;55.08;6.78;;;3.50;99.90;;;;;;6311739;22;20088;-37
2024/01/25 04:32:05;;;;;;;57.03;8.80;;;3.40;99.90;;;;;;6339431;22;20013;-38
2024/01/25 04:34:31;;;;;;;40.58;6.00;;;3.40;99.90;;;;;;6312254;22;20342;-38
2024/01/25 04:36:56;;;;;;;45.03;6.75;;;3.40;99.90;;;;;;6311807;22;20061;-38
2024/01/25 04:39:22;;;;;;;36.78;6.07;;;3.50;99.90;;;;;;6339393;22;20026;-38
2024/01/25 04:41:48;;;;;;;50.53;6.97;;;3.50;99.90;;;;;;6339663;22;20014;-39
2024/01/25 04:44:14;;;;;;;53.22;7.93;;;3.50;99.90;;;;;;6339305;22;20011;-38
2024/01/25 04:46:40;;;;;;;55.42;7.05;;;3.60;99.90;;;;;;6339021;22;20033;-40
2024/01/25 04:49:06;;;;;;;50.27;8.13;;;3.50;99.90;;;;;;6311408;22;20341;-38
2024/01/25 04:51:31;;;;;;;41.00;7.03;;;3.40;99.90;;;;;;6339235;22;20081;-40
2024/01/25 04:53:57;;;;;;;45.67;8.10;;;3.40;99.90;;;;;;6314483;22;20407;-40
2024/01/25 04:56:23;;;;;;;47.17;6.03;;;3.20;99.90;;;;;;6314443;22;20422;-39
2024/01/25 04:58:48;;;;;;;43.28;6.63;;;3.20;99.90;;;;;;6341175;22;20019;-40
2024/01/25 05:01:14;;;;;;;43.50;7.20;;;3.20;99.90;;;;;;6313645;22;20056;-40
2024/01/25 05:03:39;;;;;;;44.22;6.90;;;3.20;99.90;;;;;;6341177;22;20026;-40
2024/01/25 05:06:05;;;;;;;51.03;8.32;;;3.20;99.90;;;;;;6313781;22;20468;-39
2024/01/25 05:08:31;;;;;;;57.00;7.43;;;3.20;99.90;;;;;;6341777;22;20015;-38
2024/01/25 05:10:57;;;;;;;61.13;7.95;;;3.10;99.90;;;;;;6341021;22;20076;-40
2024/01/25 05:13:23;;;;;;;49.55;7.70;;;3.00;99.90;;;;;;6313545;22;20050;-39
2024/01/25 05:15:49;;;;;;;60.30;7.88;;;2.80;99.90;;;;;;6340947;22;20018;-40
2024/01/25 05:18:14;;;;;;;48.15;6.32;;;2.70;99.90;;;;;;6313606;22;20014;-40
2024/01/25 05:20:40;;;;;;;58.47;8.00;;;2.60;99.90;;;;;;6287093;22;20350;-41
2024/01/25 05:23:06;;;;;;;60.70;8.77;;;2.60;99.90;;;;;;6313330;22;20014;-40
2024/01/25 05:25:32;;;;;;;57.50;7.55;;;2.70;99.90;;;;;;6314384;22;20068;-40
2024/01/25 05:27:58;;;;;;;39.92;6.68;;;2.50;99.90;;;;;;6340816;22;20019;-39
2024/01/25 05:30:24;;;;;;;54.00;7.95;;;2.50;99.90;;;;;;6340951;22;20018;-40
2024/01/25 05:32:50;;;;;;;59.75;7.78;;;2.50;99.90;;;;;;6313567;22;20011;-40
2024/01/25 05:35:17;;;;;;;54.60;8.05;;;2.50;99.90;;;;;;6341502;22;20271;-39
2024/01/25 05:37:43;;;;;;;62.90;8.45;;;2.50;99.90;;;;;;6261919;22;20019;-41
2024/01/25 05:40:09;;;;;;;74.33;10.43;;;2.50;99.90;;;;;;6340699;22;20015;-39
2024/01/25 05:42:35;;;;;;;50.97;6.57;;;2.40;99.90;;;;;;6313145;22;20015;-41
2024/01/25 05:45:03;;;;;;;59.35;8.23;;;2.40;99.90;;;;;;6314239;22;20022;-40
2024/01/25 05:47:29;;;;;;;60.47;7.60;;;2.40;99.90;;;;;;6312968;22;20023;-40
2024/01/25 05:49:55;;;;;;;69.82;8.40;;;2.30;99.90;;;;;;6341467;22;20516;-40
2024/01/25 05:52:21;;;;;;;54.70;8.60;;;2.30;99.90;;;;;;6313161;22;20021;-41
2024/01/25 05:54:47;;;;;;;49.70;6.95;;;2.30;99.90;;;;;;6340578;22;20018;-40
2024/01/25 05:57:13;;;;;;;42.33;6.97;;;2.30;99.90;;;;;;6341590;22;20075;-41
2024/01/25 05:59:39;;;;;;;53.30;7.28;;;2.30;99.90;;;;;;6340483;22;20430;-40
2024/01/25 06:02:05;;;;;;;47.05;5.90;;;2.30;99.90;;;;;;6340477;22;20011;-39
2024/01/25 06:04:31;;;;;;;57.40;8.85;;;2.30;99.90;;;;;;6312429;22;20451;-40
2024/01/25 06:06:57;;;;;;;48.50;7.25;;;2.50;99.90;;;;;;6313127;22;20099;-42
2024/01/25 06:09:24;;;;;;;49.85;7.07;;;2.60;99.90;;;;;;6341540;22;20019;-40
2024/01/25 06:11:50;;;;;;;59.78;8.63;;;2.80;99.90;;;;;;6341181;22;20503;-41
2024/01/25 06:14:17;;;;;;;62.60;8.18;;;2.90;99.90;;;;;;6287129;22;20094;-40
2024/01/25 06:16:43;;;;;;;50.88;8.23;;;3.10;99.90;;;;;;6312893;22;20060;-40
2024/01/25 06:19:11;;;;;;;48.88;6.75;;;3.00;99.90;;;;;;6340364;22;20015;-39
2024/01/25 06:22:03;;;;;;;45.97;7.05;;;3.00;99.90;;;;;;6340054;22;20342;-39
2024/01/25 06:24:29;;;;;;;63.15;8.52;;;3.20;99.90;;;;;;6313895;22;20030;-41
2024/01/25 06:26:55;;;;;;;63.70;10.05;;;3.30;99.90;;;;;;6313087;22;20015;-41
2024/01/25 06:29:24;;;;;;;47.55;6.63;;;3.40;99.90;;;;;;6312702;22;20014;-41
2024/01/25 06:31:50;;;;;;;51.03;7.22;;;3.50;99.90;;;;;;6313956;22;20295;-40
2024/01/25 06:34:15;;;;;;;47.15;8.77;;;3.50;99.90;;;;;;6340994;22;20102;-39
2024/01/25 06:36:41;;;;;;;45.42;8.30;;;3.50;99.90;;;;;;6312372;22;20117;-41
2024/01/25 06:39:28;;;;;;;46.90;8.55;;;3.50;99.90;;;;;;6340087;22;20022;-40
2024/01/25 06:41:56;;;;;;;47.65;6.80;;;3.30;99.90;;;;;;6311655;22;20445;-39
2024/01/25 06:44:22;;;;;;;56.05;7.75;;;3.20;99.90;;;;;;6340139;22;20054;-40
2024/01/25 06:46:48;;;;;;;49.60;7.63;;;3.30;99.90;;;;;;6340024;22;20015;-40
2024/01/25 06:49:52;;;;;;;61.75;7.70;;;3.20;99.90;;;;;;6340605;22;20017;-38
2024/01/25 06:52:20;;;;;;;53.63;6.88;;;3.30;99.90;;;;;;6336634;22;20034;-41
2024/01/25 06:54:46;;;;;;;70.50;8.82;;;3.30;99.90;;;;;;6340072;22;20453;-41
2024/01/25 06:57:14;;;;;;;59.15;7.05;;;3.30;99.90;;;;;;6340035;22;20034;-40
2024/01/25 06:59:42;;;;;;;65.30;7.72;;;3.20;99.90;;;;;;6340116;22;20022;-40
2024/01/25 07:02:07;;;;;;;43.50;7.22;;;3.20;99.90;;;;;;6339912;22;20019;-41
2024/01/25 07:04:33;;;;;;;79.93;8.63;;;3.20;99.90;;;;;;6339572;22;20049;-41
2024/01/25 07:07:00;;;;;;;67.10;7.32;;;3.20;99.90;;;;;;6339999;22;20019;-40
2024/01/25 07:09:25;;;;;;;55.08;10.10;;;3.00;99.90;;;;;;6313398;22;20015;-40
2024/01/25 07:12:00;;;;;;;67.00;10.38;;;3.00;99.90;;;;;;6287602;22;20015;-40
2024/01/25 07:14:26;;;;;;;57.97;8.35;;;3.10;99.90;;;;;;6340639;22;20019;-41
2024/01/25 07:16:51;;;;;;;66.50;7.93;;;3.00;99.90;;;;;;6312148;22;20050;-41
2024/01/25 07:19:17;;;;;;;68.78;8.65;;;3.10;99.90;;;;;;6340533;22;20026;-40
2024/01/25 07:21:45;;;;;;;64.03;9.38;;;3.20;99.90;;;;;;6312116;22;20025;-41
2024/01/25 07:24:11;;;;;;;80.13;11.10;;;3.20;99.90;;;;;;6339752;22;20068;-40
2024/01/25 07:26:37;;;;;;;60.33;8.48;;;3.20;99.90;;;;;;6340009;22;20023;-41
2024/01/25 07:29:03;;;;;;;66.35;8.18;;;3.20;99.90;;;;;;6339724;22;20019;-41
2024/01/25 07:31:29;;;;;;;58.35;7.97;;;3.40;99.90;;;;;;6339741;22;20007;-39
2024/01/25 07:33:55;;;;;;;52.40;7.18;;;3.40;99.90;;;;;;6312971;22;20023;-41
2024/01/25 07:36:21;;;;;;;53.90;8.55;;;3.50;99.90;;;;;;6286367;22;20023;-41
2024/01/25 07:38:47;;;;;;;54.85;8.52;;;3.30;99.90;;;;;;6260679;22;20021;-40
2024/01/25 07:41:15;;;;;;;64.72;8.57;;;3.20;99.90;;;;;;6341389;22;20021;-41
2024/01/25 07:43:41;;;;;;;59.13;8.68;;;3.20;99.90;;;;;;6312090;22;20019;-42
2024/01/25 07:46:07;;;;;;;60.42;8.13;;;3.00;99.90;;;;;;6339878;22;20025;-41
2024/01/25 07:48:33;;;;;;;61.05;8.07;;;3.10;99.90;;;;;;6340832;22;20018;-41
2024/01/25 07:50:59;;;;;;;56.28;8.32;;;3.10;99.90;;;;;;6340192;22;20097;-41
2024/01/25 07:53:24;;;;;;;69.82;8.32;;;3.00;99.90;;;;;;6339663;22;20091;-40
2024/01/25 07:55:50;;;;;;;59.40;7.75;;;3.00;99.90;;;;;;6339815;22;20543;-41
2024/01/25 07:58:16;;;;;;;71.07;10.70;;;3.00;99.90;;;;;;6311939;22;20023;-40
2024/01/25 08:00:42;;;;;;;76.55;9.80;;;3.10;99.90;;;;;;6311918;22;20045;-41
2024/01/25 08:03:08;;;;;;;45.22;6.60;;;3.10;99.90;;;;;;6339155;22;20019;-42
2024/01/25 08:05:34;;;;;;;61.08;7.32;;;3.20;99.90;;;;;;6339214;22;20316;-40
2024/01/25 08:08:00;;;;;;;53.40;7.45;;;3.20;99.90;;;;;;6339511;22;20018;-40
2024/01/25 08:10:25;;;;;;;80.53;9.68;;;3.20;99.90;;;;;;6339096;22;20076;-41
2024/01/25 08:12:51;;;;;;;48.00;7.35;;;3.30;99.90;;;;;;6339431;22;20026;-41
2024/01/25 08:15:17;;;;;;;77.53;8.77;;;3.30;99.90;;;;;;6340136;22;20033;-41
2024/01/25 08:17:43;;;;;;;47.35;7.13;;;3.40;99.90;;;;;;6311754;22;20014;-41
2024/01/25 08:20:10;;;;;;;65.75;8.77;;;3.30;99.90;;;;;;6339812;22;20037;-41
2024/01/25 08:22:36;;;;;;;60.15;9.38;;;3.40;99.90;;;;;;6285904;22;20011;-41
2024/01/25 08:25:04;;;;;;;61.47;10.02;;;3.40;99.90;;;;;;6339348;22;20015;-41
2024/01/25 08:27:29;;;;;;;52.90;8.35;;;3.40;99.90;;;;;;6312447;22;20019;-42
2024/01/25 08:29:55;;;;;;;64.00;8.65;;;3.40;99.90;;;;;;6339392;22;20019;-40
2024/01/25 08:32:21;;;;;;;59.53;7.82;;;3.40;99.90;;;;;;6339849;22;20022;-41
2024/01/25 08:34:46;;;;;;;68.22;8.68;;;3.40;99.90;;;;;;6311796;22;20015;-42
2024/01/25 08:37:12;;;;;;;60.72;10.70;;;3.40;99.90;;;;;;6339308;22;20054;-40
2024/01/25 08:39:38;;;;;;;59.72;7.40;;;3.40;99.90;;;;;;6339288;22;20026;-42
2024/01/25 08:42:06;;;;;;;76.55;9.55;;;3.40;99.90;;;;;;6312328;22;20007;-41
2024/01/25 08:44:32;;;;;;;61.38;9.93;;;3.50;99.90;;;;;;6339338;22;20090;-42
2024/01/25 08:46:58;;;;;;;65.43;9.48;;;3.60;99.90;;;;;;6338667;22;20334;-42
2024/01/25 08:49:23;;;;;;;54.53;7.80;;;3.60;99.90;;;;;;6339238;22;20019;-40
2024/01/25 08:51:50;;;;;;;65.68;8.02;;;3.70;99.90;;;;;;6311693;22;20015;-41
2024/01/25 08:54:15;;;;;;;55.45;8.25;;;3.70;99.90;;;;;;6312324;22;20018;-41
2024/01/25 08:56:41;;;;;;;57.28;10.38;;;3.80;99.90;;;;;;6311743;22;20101;-42
2024/01/25 08:59:07;;;;;;;54.58;7.70;;;3.90;99.90;;;;;;6339305;22;20027;-40
2024/01/25 09:01:33;;;;;;;53.42;8.13;;;3.90;99.90;;;;;;6285324;22;20023;-41
2024/01/25 09:04:02;;;;;;;55.92;9.00;;;3.90;99.90;;;;;;6339172;22;20050;-41
2024/01/25 09:06:30;;;;;;;58.13;9.13;;;3.90;99.90;;;;;;6339140;22;20342;-41
2024/01/25 09:08:56;;;;;;;76.10;10.43;;;4.00;99.90;;;;;;6339797;22;20019;-41
2024/01/25 09:11:21;;;;;;;71.22;8.55;;;4.00;99.90;;;;;;6285886;22;20026;-42
2024/01/25 09:13:47;;;;;;;60.03;9.63;;;4.00;99.90;;;;;;6339753;22;20019;-39
2024/01/25 09:16:14;;;;;;;65.40;9.35;;;4.10;99.90;;;;;;6311406;22;20080;-39
2024/01/25 09:18:39;;;;;;;49.70;7.55;;;4.20;99.90;;;;;;6311484;22;20037;-41
2024/01/25 09:21:05;;;;;;;51.70;8.38;;;4.20;99.90;;;;;;6339309;22;20015;-40
2024/01/25 09:23:31;;;;;;;49.65;7.85;;;4.30;99.90;;;;;;6339084;22;20026;-41
2024/01/25 09:25:57;;;;;;;50.70;7.63;;;4.40;99.90;;;;;;6285590;22;20027;-39
2024/01/25 09:28:23;;;;;;;71.60;7.97;;;4.50;99.90;;;;;;6311368;22;20021;-39
2024/01/25 09:30:48;;;;;;;58.72;8.45;;;4.60;99.90;;;;;;6339027;22;20021;-41
2024/01/25 09:33:14;;;;;;;58.58;9.20;;;4.60;99.90;;;;;;6338877;22;20019;-40
2024/01/25 09:35:40;;;;;;;77.60;10.13;;;4.70;99.90;;;;;;6339601;22;20330;-39
2024/01/25 09:38:07;;;;;;;65.78;9.13;;;4.80;99.90;;;;;;6339137;22;20022;-41
2024/01/25 09:40:33;;;;;;;67.82;9.60;;;4.90;99.90;;;;;;6340779;22;20015;-41
2024/01/25 09:43:02;;;;;;;68.15;9.60;;;4.80;99.90;;;;;;6341705;22;20310;-41
2024/01/25 09:45:28;;;;;;;50.72;9.52;;;4.90;99.90;;;;;;6340800;22;20098;-39
2024/01/25 09:47:53;;;;;;;51.15;7.93;;;4.90;99.90;;;;;;6340395;22;20058;-41
2024/01/25 09:50:19;;;;;;;61.58;9.45;;;5.00;99.90;;;;;;6313121;22;20015;-39
2024/01/25 09:52:50;;;;;;;60.30;8.90;;;5.00;99.90;;;;;;6287292;22;20018;-41
2024/01/25 09:55:19;;;;;;;51.47;8.45;;;5.00;99.90;;;;;;6340976;22;20320;-40
2024/01/25 09:57:50;;;;;;;51.75;9.35;;;5.10;99.90;;;;;;6340510;22;20028;-41
2024/01/25 10:00:16;;;;;;;44.92;7.80;;;5.10;99.90;;;;;;6314077;22;20025;-41
2024/01/25 10:02:42;;;;;;;45.88;7.80;;;5.20;99.90;;;;;;6313112;22;20007;-41
2024/01/25 10:05:08;;;;;;;48.60;7.70;;;5.20;99.90;;;;;;6313394;22;20093;-39
2024/01/25 10:07:41;;;;;;;50.15;7.53;;;5.30;99.90;;;;;;6341183;22;20414;-41
2024/01/25 10:10:08;;;;;;;54.60;8.70;;;5.30;99.90;;;;;;6340489;22;20023;-40
2024/01/25 10:12:34;;;;;;;45.30;8.02;;;5.40;99.90;;;;;;6312560;22;20011;-40
2024/01/25 10:15:00;;;;;;;50.92;8.82;;;5.40;99.90;;;;;;6341116;22;20156;-39
2024/01/25 10:17:28;;;;;;;54.08;8.27;;;5.40;99.90;;;;;;6313906;22;20411;-40
2024/01/25 10:19:53;;;;;;;44.88;7.45;;;5.50;99.90;;;;;;6313019;22;20010;-40
2024/01/25 10:22:19;;;;;;;58.70;8.85;;;5.50;99.90;;;;;;6287051;22;20426;-40
2024/01/25 10:24:45;;;;;;;50.50;8.45;;;5.60;99.90;;;;;;6340373;22;20026;-40
2024/01/25 10:27:12;;;;;;;53.75;8.82;;;5.50;99.90;;;;;;6313834;22;20427;-40
2024/01/25 10:29:38;;;;;;;62.08;8.85;;;5.50;99.90;;;;;;6340221;22;20334;-40
2024/01/25 10:32:04;;;;;;;54.00;9.43;;;5.50;99.90;;;;;;6340262;22;20047;-40
2024/01/25 10:34:30;;;;;;;59.53;9.52;;;5.50;99.90;;;;;;6340310;22;20015;-39
2024/01/25 10:36:57;;;;;;;52.33;10.13;;;5.50;99.90;;;;;;6340260;22;20010;-40
2024/01/25 10:39:42;;;;;;;50.30;8.13;;;5.50;99.90;;;;;;6340310;22;20015;-39
2024/01/25 10:42:08;;;;;;;47.53;8.73;;;5.60;99.90;;;;;;6340461;22;20010;-39
2024/01/25 10:44:34;;;;;;;55.72;8.63;;;5.80;99.90;;;;;;6312645;22;20477;-40
2024/01/25 10:47:00;;;;;;;43.90;8.02;;;5.90;99.90;;;;;;6340046;22;20015;-39
2024/01/25 10:49:26;;;;;;;68.15;9.15;;;6.00;99.90;;;;;;6340134;22;20409;-40
2024/01/25 10:51:53;;;;;;;56.38;9.27;;;6.10;99.90;;;;;;6312346;22;20064;-40
2024/01/25 10:54:19;;;;;;;50.33;9.10;;;6.10;99.90;;;;;;6340122;22;20026;-38
2024/01/25 10:56:48;;;;;;;43.60;7.88;;;6.10;99.90;;;;;;6340119;22;20011;-40
2024/01/25 10:59:15;;;;;;;56.45;9.77;;;6.20;99.90;;;;;;6340159;22;20011;-38
2024/01/25 11:01:48;;;;;;;42.42;7.45;;;6.30;99.90;;;;;;6312406;22;20010;-39
2024/01/25 11:04:19;;;;;;;49.10;8.05;;;6.40;99.90;;;;;;6312499;22;20015;-38
2024/01/25 11:06:45;;;;;;;55.58;10.35;;;6.50;99.90;;;;;;6339978;22;20144;-40
2024/01/25 11:09:20;;;;;;;46.17;8.18;;;6.50;99.90;;;;;;6340633;22;20026;-39
2024/01/25 11:11:53;;;;;;;44.75;7.53;;;6.50;99.90;;;;;;6313484;22;20017;-40
2024/01/25 11:14:25;;;;;;;41.05;7.85;;;6.50;99.90;;;;;;6312443;22;20346;-40
2024/01/25 11:16:51;;;;;;;51.53;8.73;;;6.40;99.90;;;;;;6312415;22;20045;-38
2024/01/25 11:19:18;;;;;;;39.25;7.38;;;6.60;99.90;;;;;;6312332;22;20030;-39
2024/01/25 11:21:48;;;;;;;52.25;8.55;;;6.60;99.90;;;;;;6339796;22;20053;-40
2024/01/25 11:24:21;;;;;;;47.53;8.85;;;6.80;99.90;;;;;;6339863;22;20026;-38
2024/01/25 11:26:47;;;;;;;;;;;6.90;99.90;;;;;;6286999;22;20446;-38
2024/01/25 11:29:16;;;;;;;46.17;8.02;;;6.80;99.90;;;;;;6312187;22;19950;-39
2024/01/25 11:31:43;;;;;;;41.75;7.40;;;6.70;99.90;;;;;;6312431;22;20017;-36
2024/01/25 11:34:11;;;;;;;48.50;8.25;;;6.80;99.90;;;;;;6312662;22;20077;-40
2024/01/25 11:36:37;;;;;;;43.67;7.28;;;6.80;99.90;;;;;;6340460;22;20092;-39
2024/01/25 11:39:03;;;;;;;45.63;7.40;;;6.90;99.90;;;;;;6339851;22;20014;-39
2024/01/25 11:41:31;;;;;;;41.53;7.40;;;6.90;99.90;;;;;;6339658;22;20076;-38
2024/01/25 11:43:57;;;;;;;44.92;7.55;;;6.90;99.90;;;;;;6339722;22;20015;-39
2024/01/25 11:46:23;;;;;;;43.65;7.68;;;6.80;99.90;;;;;;6311933;22;20159;-41
2024/01/25 11:48:49;;;;;;;45.20;8.15;;;6.90;99.90;;;;;;6281068;22;20019;-39
2024/01/25 11:51:14;;;;;;;51.15;9.32;;;6.80;99.90;;;;;;6308402;22;20101;-38
2024/01/25 11:53:41;;;;;;;47.35;7.20;;;6.90;99.90;;;;;;6307848;22;20331;-37
2024/01/25 11:56:09;;;;;;;50.17;10.30;;;7.00;99.90;;;;;;6308222;22;20019;-37
2024/01/25 11:58:39;;;;;;;42.95;7.82;;;7.00;99.90;;;;;;6308313;22;20019;-39
2024/01/25 12:01:07;;;;;;;50.83;8.27;;;7.10;99.90;;;;;;6306891;22;20015;-36
2024/01/25 12:03:36;;;;;;;34.50;6.68;;;7.20;99.90;;;;;;6308598;22;20095;-39
2024/01/25 12:06:06;;;;;;;33.65;6.32;;;7.10;99.90;;;;;;6306691;22;20055;-40
2024/01/25 12:08:35;;;;;;;52.13;8.63;;;7.10;99.90;;;;;;6307729;22;20419;-39
2024/01/25 12:11:04;;;;;;;43.00;7.10;;;7.20;99.90;;;;;;6306779;22;20458;-39
2024/01/25 12:13:39;;;;;;;32.97;6.05;;;7.20;99.90;;;;;;6306732;22;20312;-39
2024/01/25 12:16:07;;;;;;;33.33;6.85;;;7.20;99.90;;;;;;6308192;22;20019;-39
2024/01/25 12:18:34;;;;;;;35.25;8.52;;;7.30;99.90;;;;;;6309212;22;20057;-37
2024/01/25 12:21:02;;;;;;;40.03;7.45;;;7.30;99.90;;;;;;6308804;22;20015;-37
2024/01/25 12:23:35;;;;;;;45.97;8.50;;;7.40;99.90;;;;;;6307757;22;20339;-38
2024/01/25 12:26:04;;;;;;;;;;;7.60;99.90;;;;;;6308647;22;20073;-38
2024/01/25 12:28:32;;;;;;;40.47;9.25;;;7.80;99.90;;;;;;6307638;22;20036;-38
2024/01/25 12:31:05;;;;;;;34.55;6.90;;;7.90;99.90;;;;;;6308776;22;20422;-39
2024/01/25 12:33:32;;;;;;;36.85;7.18;;;7.90;99.90;;;;;;6308845;22;20026;-39
2024/01/25 12:35:58;;;;;;;34.78;6.68;;;7.90;99.90;;;;;;6308051;22;20015;-38
2024/01/25 12:38:25;;;;;;;49.80;7.38;;;7.80;99.90;;;;;;6306562;22;20025;-34
2024/01/25 12:40:52;;;;;;;34.42;6.55;;;7.80;99.90;;;;;;6308249;22;20011;-37
2024/01/25 12:43:18;;;;;;;41.15;8.75;;;7.80;99.90;;;;;;6308713;22;20079;-39
2024/01/25 12:45:45;;;;;;;37.15;6.57;;;7.80;99.90;;;;;;6306410;22;20086;-38